Time;durP1;ratioP1;P1;durP2;ratioP2;P2;SDS_P1;SDS_P2;PMS_P1;PMS_P2;Temp;Humidity;BMP_temperature;BMP_pressure;BME280_temperature;BME280_humidity;BME280_pressure;Samples;Min_cycle;Max_cycle;Signal;HPM_P1;HPM_P2
2022/11/17 00:01:19;;;;;;;35.42;18.20;;;;;;;11.00;59.79;98255.00;4370458;32;20114;-93
2022/11/17 00:03:51;;;;;;;36.97;18.08;;;;;;;10.96;59.78;98249.13;4371394;32;20063;-93
2022/11/17 00:06:19;;;;;;;37.55;18.67;;;;;;;10.80;59.77;98260.50;4365687;32;20743;-93
2022/11/17 00:09:17;;;;;;;36.08;18.02;;;;;;;10.74;59.77;98265.13;4377597;32;20106;-92
2022/11/17 00:14:35;;;;;;;31.90;16.92;;;;;;;11.05;59.79;98268.59;4388015;32;20156;-91
2022/11/17 00:17:04;;;;;;;33.97;17.77;;;;;;;11.12;59.79;98259.53;4353762;32;20137;-92
2022/11/17 00:22:14;;;;;;;32.53;17.40;;;;;;;11.25;59.80;98260.47;4377439;32;20133;-92
2022/11/17 00:24:39;;;;;;;32.13;16.02;;;;;;;11.14;59.79;98252.44;4358051;32;20106;-91
2022/11/17 00:27:04;;;;;;;31.45;16.37;;;;;;;11.12;59.79;98248.22;4364139;32;20614;-92
2022/11/17 00:29:30;;;;;;;31.85;17.30;;;;;;;11.01;59.79;98248.87;4368732;32;20198;-92
2022/11/17 00:34:39;;;;;;;35.00;17.55;;;;;;;10.99;59.79;98250.72;4367499;32;20113;-92
2022/11/17 00:37:05;;;;;;;34.95;17.35;;;;;;;11.17;59.79;98254.03;4362635;32;20700;-93
2022/11/17 00:39:30;;;;;;;30.62;15.75;;;;;;;11.22;59.79;98249.41;4362751;32;20166;-92
2022/11/17 00:41:56;;;;;;;35.22;17.08;;;;;;;11.25;59.80;98257.03;4362390;32;20161;-92
2022/11/17 00:44:21;;;;;;;34.42;17.70;;;;;;;11.22;59.79;98249.41;4365031;32;20127;-92
2022/11/17 00:46:47;;;;;;;31.75;16.77;;;;;;;10.98;59.78;98252.50;4362883;32;20571;-92
2022/11/17 00:49:13;;;;;;;32.35;16.08;;;;;;;11.14;59.79;98267.25;4364173;32;20163;-92
2022/11/17 00:51:39;;;;;;;31.12;17.20;;;;;;;11.22;59.80;98249.41;4375422;32;20147;-92
2022/11/17 00:54:04;;;;;;;31.87;17.60;;;;;;;11.28;59.80;98243.81;4359002;32;20174;-92
2022/11/17 00:56:30;;;;;;;29.98;16.35;;;;;;;11.24;59.80;98243.16;4381665;32;20135;-92
2022/11/17 00:58:55;;;;;;;36.08;17.48;;;;;;;11.25;59.80;98241.41;4371642;32;22600;-94
2022/11/17 01:01:21;;;;;;;36.47;18.08;;;;;;;11.19;59.79;98244.38;4354093;32;20118;-94
2022/11/17 01:03:49;;;;;;;35.65;18.55;;;;;;;10.99;59.79;98242.91;4359383;32;20120;-93
2022/11/17 01:06:16;;;;;;;38.97;17.85;;;;;;;10.95;59.78;98238.81;4366691;32;20982;-94
2022/11/17 01:08:49;;;;;;;30.20;15.85;;;;;;;11.06;59.78;98234.66;4364049;32;20103;-93
2022/11/17 01:11:16;;;;;;;31.45;16.70;;;;;;;11.04;59.78;98233.06;4365844;32;20947;-93
2022/11/17 01:13:41;;;;;;;32.92;17.50;;;;;;;11.13;59.79;98218.69;4378122;32;20166;-93
2022/11/17 01:17:31;;;;;;;33.13;17.52;;;;;;;10.99;59.79;98222.09;4378153;32;20110;-92
2022/11/17 01:19:32;;;;;;;34.90;16.42;;;;;;;10.94;59.79;98221.53;4371078;32;20128;-93
2022/11/17 01:21:57;;;;;;;35.25;16.95;;;;;;;10.91;59.77;98209.53;4352927;32;20111;-93
2022/11/17 01:24:22;;;;;;;34.17;17.08;;;;;;;10.70;59.76;98208.16;4377776;32;20126;-93
2022/11/17 01:26:50;;;;;;;34.00;17.52;;;;;;;10.72;59.77;98203.69;4353350;32;20138;-93
2022/11/17 01:29:16;;;;;;;39.45;18.05;;;;;;;10.85;59.77;98214.22;4377789;32;20118;-93
2022/11/17 01:31:44;;;;;;;34.70;16.85;;;;;;;10.67;59.76;98211.75;4353117;32;20131;-92
2022/11/17 01:34:09;;;;;;;31.92;17.10;;;;;;;10.65;59.76;98212.78;4380866;32;20094;-94
2022/11/17 01:39:21;;;;;;;33.83;16.42;;;;;;;10.55;59.76;98207.25;4388857;32;20136;-93
2022/11/17 01:41:47;;;;;;;37.92;18.33;;;;;;;10.64;59.77;98218.88;4363015;32;20162;-93
2022/11/17 01:44:34;;;;;;;37.22;17.98;;;;;;;10.51;59.76;98212.72;4373586;32;20112;-93
2022/11/17 01:47:00;;;;;;;34.33;18.05;;;;;;;10.60;59.76;98210.41;4390632;32;20154;-93
2022/11/17 01:49:25;;;;;;;33.22;17.35;;;;;;;10.70;59.77;98208.97;4362343;32;20169;-93
2022/11/17 01:51:52;;;;;;;32.33;17.73;;;;;;;10.63;59.77;98204.19;4362900;32;20789;-93
2022/11/17 01:54:19;;;;;;;33.05;17.58;;;;;;;10.70;59.76;98215.97;4375657;32;20109;-93
2022/11/17 01:56:45;;;;;;;38.13;19.02;;;;;;;10.58;59.76;98230.47;4365596;32;20729;-92
2022/11/17 01:59:26;;;;;;;36.33;17.10;;;;;;;10.58;59.76;98225.28;4353113;32;20143;-93
2022/11/17 02:01:55;;;;;;;31.75;17.60;;;;;;;10.58;59.77;98230.47;4378231;32;20737;-93
2022/11/17 02:04:43;;;;;;;35.78;16.30;;;;;;;10.54;59.76;98231.59;4374403;32;20098;-92
2022/11/17 02:07:13;;;;;;;32.67;16.60;;;;;;;10.62;59.76;98224.16;4379771;32;20082;-93
2022/11/17 02:09:39;;;;;;;34.42;16.80;;;;;;;10.38;59.75;98228.16;4365056;32;20874;-93
2022/11/17 02:12:10;;;;;;;36.00;17.83;;;;;;;10.47;59.75;98239.81;4367724;32;20119;-92
2022/11/17 02:14:36;;;;;;;31.08;17.17;;;;;;;10.42;59.75;98243.53;4378885;32;20059;-92
2022/11/17 02:17:01;;;;;;;35.22;17.42;;;;;;;10.26;59.75;98231.44;4351777;32;20162;-90
2022/11/17 02:19:27;;;;;;;41.85;17.65;;;;;;;10.32;59.75;98228.50;4377376;32;20519;-91
2022/11/17 02:22:27;;;;;;;34.55;16.65;;;;;;;10.20;59.74;98230.00;4351886;32;20126;-92
2022/11/17 02:25:17;;;;;;;37.55;17.87;;;;;;;10.27;59.74;98218.34;4361230;32;20090;-92
2022/11/17 02:27:54;;;;;;;30.92;15.63;;;;;;;10.09;59.74;98217.56;4377905;32;20078;-91
2022/11/17 02:30:20;;;;;;;35.22;16.25;;;;;;;9.98;59.73;98211.28;4397323;27;20127;-94
2022/11/17 02:32:56;;;;;;;32.28;16.33;;;;;;;10.07;59.74;98221.16;4380605;32;20172;-93
2022/11/17 02:35:27;;;;;;;35.58;16.95;;;;;;;9.96;59.73;98208.75;4381125;32;20089;-93
2022/11/17 02:38:27;;;;;;;35.03;17.33;;;;;;;9.96;59.73;98206.16;4395451;32;20089;-93
2022/11/17 02:41:26;;;;;;;;;;;;;;;;;;;;;
2022/11/17 02:48:11;;;;;;;;;;;;;;;;;;;;;
2022/11/17 02:54:06;;;;;;;;;;;;;;;;;;;;;
2022/11/17 02:57:04;;;;;;;45.25;21.55;;;;;;;9.94;59.73;98213.22;4396355;32;36157;-94
2022/11/17 03:04:28;;;;;;;;;;;;;;;;;;;;;
2022/11/17 03:18:01;;;;;;;35.60;17.00;;;;;;;9.71;59.71;98177.22;4329072;33;20133;-95
2022/11/17 03:20:30;;;;;;;35.88;17.27;;;;;;;9.65;59.71;98175.75;4341661;32;20115;-92
2022/11/17 03:23:23;;;;;;;35.40;17.90;;;;;;;9.83;59.72;98173.94;4349044;32;20099;-94
2022/11/17 03:25:52;;;;;;;38.65;17.52;;;;;;;9.92;59.72;98168.25;4359925;32;20090;-94
2022/11/17 03:28:17;;;;;;;39.88;16.27;;;;;;;9.82;59.72;98167.91;4355387;32;20114;-93
2022/11/17 03:30:48;;;;;;;38.63;17.92;;;;;;;10.04;59.74;98158.94;4354562;32;20142;-94
2022/11/17 03:33:27;;;;;;;;;;;;;;;;;;;;;
2022/11/17 03:36:08;;;;;;;39.15;17.98;;;;;;;10.07;59.73;98167.41;4380051;32;35985;-95
2022/11/17 03:39:26;;;;;;;33.03;16.95;;;;;;;10.34;59.75;98179.81;4355903;32;20098;-94
2022/11/17 03:42:19;;;;;;;33.75;15.50;;;;;;;10.40;59.76;98182.06;4330683;32;20098;-94
2022/11/17 03:45:31;;;;;;;33.17;16.15;;;;;;;10.22;59.74;98196.97;4380070;32;20099;-94
2022/11/17 03:48:22;;;;;;;33.15;16.08;;;;;;;10.03;59.73;98209.25;4395702;32;20454;-94
2022/11/17 03:51:07;;;;;;;;;;;;;;;;;;;;;
2022/11/17 03:54:07;;;;;;;31.80;15.63;;;;;;;9.97;59.73;98218.25;4371081;32;36336;-93
2022/11/17 03:56:39;;;;;;;38.20;16.65;;;;;;;9.90;59.72;98224.66;4368938;32;20082;-93
2022/11/17 03:59:41;;;;;;;;;;;;;;;;;;;;;
2022/11/17 04:02:12;;;;;;;31.90;15.10;;;;;;;10.04;59.74;98229.97;4394089;32;37720;-94
2022/11/17 04:07:29;;;;;;;34.72;16.25;;;;;;;10.08;59.73;98234.06;4362415;32;20113;-93
2022/11/17 04:10:23;;;;;;;31.45;15.63;;;;;;;9.88;59.72;98226.50;4366808;32;20404;-93
2022/11/17 04:18:18;;;;;;;38.58;15.98;;;;;;;10.03;59.74;98214.47;4372510;32;20105;-93
2022/11/17 04:23:57;;;;;;;31.70;15.48;;;;;;;10.05;59.73;98218.66;4935107;26;20094;-93
2022/11/17 04:29:07;;;;;;;31.70;15.40;;;;;;;10.03;59.73;98220.50;4413436;32;20165;-93
2022/11/17 04:31:32;;;;;;;31.23;15.85;;;;;;;10.15;59.73;98221.56;4398025;32;20093;-93
2022/11/17 04:38:17;;;;;;;;;;;;;;;;;;;;;
2022/11/17 04:44:19;;;;;;;28.90;14.20;;;;;;;10.12;59.74;98219.16;4354443;32;20617;-96
2022/11/17 04:46:54;;;;;;;32.60;15.10;;;;;;;10.07;59.73;98221.16;4351134;32;20133;-96
2022/11/17 04:49:21;;;;;;;32.22;14.98;;;;;;;9.97;59.73;98226.03;4395998;32;20165;-93
2022/11/17 04:51:56;;;;;;;33.85;16.05;;;;;;;10.00;59.73;98225.87;4403599;32;20089;-93
2022/11/17 04:54:23;;;;;;;32.40;15.23;;;;;;;9.70;59.71;98223.16;4400423;32;20144;-93
2022/11/17 04:56:55;;;;;;;36.50;15.98;;;;;;;9.56;59.70;98228.22;4395668;32;20114;-93
2022/11/17 04:59:30;;;;;;;31.08;15.48;;;;;;;9.52;59.70;98235.34;4383298;32;20106;-94
2022/11/17 05:01:55;;;;;;;36.15;16.15;;;;;;;9.53;59.70;98244.81;4378749;32;20104;-94
2022/11/17 05:07:07;;;;;;;36.38;16.65;;;;;;;9.45;59.70;98261.69;4409402;32;20081;-95
2022/11/17 05:09:33;;;;;;;35.05;15.52;;;;;;;9.49;59.71;98264.06;4384074;32;20144;-95
2022/11/17 05:15:05;;;;;;;34.80;16.20;;;;;;;9.59;59.71;98271.37;4398251;32;20135;-95
2022/11/17 05:17:30;;;;;;;40.30;17.33;;;;;;;9.78;59.72;98267.75;4385490;32;20129;-93
2022/11/17 05:19:56;;;;;;;35.80;15.70;;;;;;;9.85;59.72;98263.06;4395479;32;20150;-92
2022/11/17 05:25:07;;;;;;;30.23;14.95;;;;;;;9.85;59.72;98263.91;4397294;32;20112;-93
2022/11/17 05:27:33;;;;;;;33.22;15.88;;;;;;;9.99;59.73;98264.94;4383285;32;20133;-94
2022/11/17 05:29:59;;;;;;;32.38;15.25;;;;;;;9.87;59.72;98265.56;4383111;32;20105;-93
2022/11/17 05:32:25;;;;;;;32.88;14.90;;;;;;;10.00;59.73;98261.41;4395197;32;20065;-94
2022/11/17 05:34:50;;;;;;;28.52;13.77;;;;;;;9.94;59.73;98254.78;4382521;32;20086;-93
2022/11/17 05:37:15;;;;;;;35.05;16.08;;;;;;;10.15;59.73;98255.37;4382814;32;20156;-93
2022/11/17 05:39:41;;;;;;;31.20;15.13;;;;;;;10.15;59.73;98252.78;4383155;32;20207;-94
2022/11/17 05:42:06;;;;;;;31.40;14.82;;;;;;;10.03;59.73;98248.25;4382203;32;21000;-93
2022/11/17 05:44:32;;;;;;;30.37;14.45;;;;;;;10.06;59.73;98243.72;4382646;32;20381;-94
2022/11/17 05:46:57;;;;;;;31.70;14.27;;;;;;;10.17;59.73;98248.31;4392547;32;20205;-91
2022/11/17 05:49:24;;;;;;;36.90;16.12;;;;;;;10.13;59.74;98249.41;4382565;32;23429;-93
2022/11/17 05:51:49;;;;;;;31.55;14.30;;;;;;;10.27;59.75;98259.97;4380419;32;20098;-93
2022/11/17 05:54:14;;;;;;;30.80;14.63;;;;;;;10.28;59.74;98260.81;4382772;32;20110;-93
2022/11/17 05:56:48;;;;;;;29.67;14.50;;;;;;;10.14;59.74;98264.94;4382357;32;20405;-93
2022/11/17 05:59:26;;;;;;;32.50;14.38;;;;;;;10.02;59.73;98268.22;4395238;32;20135;-93
2022/11/17 06:02:07;;;;;;;35.28;17.10;;;;;;;10.05;59.73;98275.00;4381042;32;20132;-92
2022/11/17 06:04:32;;;;;;;42.20;17.17;;;;;;;10.04;59.74;98279.37;4392643;32;20114;-93
2022/11/17 06:06:58;;;;;;;37.63;15.80;;;;;;;10.01;59.73;98278.69;4381769;32;30202;-94
2022/11/17 06:09:28;;;;;;;34.33;15.45;;;;;;;10.07;59.73;98287.00;4382127;32;20132;-94
2022/11/17 06:11:53;;;;;;;;;;;;;;;9.99;59.73;98290.94;4407841;32;20066;-92
2022/11/17 06:14:19;;;;;;;33.47;13.80;;;;;;;10.13;59.74;98284.06;4407848;32;19966;-93
2022/11/17 06:16:44;;;;;;;31.20;14.43;;;;;;;10.08;59.73;98275.69;4382344;32;20145;-92
2022/11/17 06:19:14;;;;;;;33.20;14.87;;;;;;;10.11;59.74;98275.50;4382128;32;20110;-93
2022/11/17 06:21:39;;;;;;;32.28;14.93;;;;;;;10.22;59.74;98277.56;4381215;32;20101;-93
2022/11/17 06:24:05;;;;;;;32.60;15.25;;;;;;;10.26;59.75;98275.66;4391492;32;20117;-92
2022/11/17 06:26:30;;;;;;;34.20;16.67;;;;;;;10.29;59.75;98276.31;4366914;32;20132;-92
2022/11/17 06:28:55;;;;;;;28.75;14.40;;;;;;;10.53;59.76;98276.75;4359980;32;20132;-93
2022/11/17 06:31:21;;;;;;;31.62;15.25;;;;;;;10.38;59.75;98278.41;4372218;32;20117;-93
2022/11/17 06:33:46;;;;;;;29.40;14.32;;;;;;;10.53;59.75;98266.34;4354852;32;20366;-93
2022/11/17 06:36:12;;;;;;;29.20;13.95;;;;;;;10.34;59.75;98269.09;4367261;32;20447;-89
2022/11/17 06:38:37;;;;;;;23.50;12.45;;;;;;;10.53;59.75;98268.94;4366630;32;20135;-93
2022/11/17 06:41:03;;;;;;;34.88;14.52;;;;;;;10.48;59.76;98265.75;4364463;32;20098;-93
2022/11/17 06:43:29;;;;;;;29.12;14.25;;;;;;;10.44;59.76;98278.09;4376462;32;20136;-93
2022/11/17 06:45:54;;;;;;;29.55;13.60;;;;;;;10.27;59.74;98285.13;4382234;32;20102;-93
2022/11/17 06:48:25;;;;;;;29.23;12.45;;;;;;;10.35;59.75;98286.37;4380844;32;24517;-94
2022/11/17 06:50:51;;;;;;;29.15;12.93;;;;;;;10.29;59.74;98291.09;4367379;32;20117;-93
2022/11/17 06:53:17;;;;;;;29.30;13.20;;;;;;;10.20;59.74;98297.59;4366297;32;20144;-93
2022/11/17 06:55:45;;;;;;;27.42;13.45;;;;;;;10.11;59.73;98311.91;4367135;32;20134;-93
2022/11/17 06:58:10;;;;;;;27.52;13.32;;;;;;;9.82;59.72;98295.25;4380786;32;20126;-93
2022/11/17 07:00:36;;;;;;;28.83;14.35;;;;;;;9.84;59.72;98302.97;4368492;32;20116;-93
2022/11/17 07:03:03;;;;;;;29.10;14.27;;;;;;;9.92;59.72;98313.78;4381015;32;20168;-93
2022/11/17 07:05:30;;;;;;;27.92;13.50;;;;;;;9.98;59.73;98313.50;4366053;32;20149;-93
2022/11/17 07:07:57;;;;;;;31.67;14.40;;;;;;;9.98;59.73;98318.69;4364926;32;20130;-93
2022/11/17 07:10:22;;;;;;;31.27;13.38;;;;;;;10.09;59.74;98313.75;4368697;32;20116;-93
2022/11/17 07:12:48;;;;;;;32.38;13.85;;;;;;;9.98;59.73;98312.66;4381060;32;20094;-94
2022/11/17 07:15:14;;;;;;;30.15;14.00;;;;;;;10.23;59.74;98310.47;4367929;32;23468;-93
2022/11/17 07:17:39;;;;;;;33.70;15.57;;;;;;;10.26;59.75;98310.28;4368070;32;20159;-93
2022/11/17 07:20:05;;;;;;;31.65;14.18;;;;;;;10.43;59.75;98310.22;4378657;32;20128;-94
2022/11/17 07:22:32;;;;;;;27.80;13.88;;;;;;;10.51;59.76;98307.19;4360838;32;20106;-93
2022/11/17 07:24:57;;;;;;;30.67;12.43;;;;;;;10.70;59.77;98302.66;4379305;32;20137;-92
2022/11/17 07:27:23;;;;;;;27.27;13.25;;;;;;;10.85;59.78;98311.38;4389488;32;20154;-92
2022/11/17 07:29:48;;;;;;;28.17;13.75;;;;;;;10.84;59.77;98308.84;4398005;32;20094;-92
2022/11/17 07:32:14;;;;;;;27.27;13.13;;;;;;;10.97;59.78;98307.25;4385317;32;20130;-92
2022/11/17 07:34:40;;;;;;;28.20;13.60;;;;;;;10.94;59.79;98312.62;4385414;32;20177;-92
2022/11/17 07:37:06;;;;;;;31.25;14.52;;;;;;;10.99;59.79;98313.22;4383003;32;20167;-92
2022/11/17 07:39:31;;;;;;;27.58;14.50;;;;;;;11.10;59.79;98308.22;4378799;32;20128;-94
2022/11/17 07:41:57;;;;;;;25.00;13.25;;;;;;;11.04;59.79;98314.63;4385339;32;20132;-93
2022/11/17 07:44:22;;;;;;;25.95;12.98;;;;;;;11.10;59.79;98323.84;4385072;32;22646;-93
2022/11/17 07:46:48;;;;;;;27.98;12.60;;;;;;;11.05;59.78;98316.28;4385428;32;20152;-93
2022/11/17 07:49:13;;;;;;;26.92;13.25;;;;;;;11.14;59.79;98319.31;4385094;32;20129;-92
2022/11/17 07:51:38;;;;;;;22.10;11.80;;;;;;;11.18;59.80;98324.25;4385170;32;20085;-94
2022/11/17 07:54:04;;;;;;;24.42;12.05;;;;;;;11.15;59.79;98324.44;4397609;32;20765;-93
2022/11/17 07:56:29;;;;;;;26.27;12.57;;;;;;;11.21;59.79;98311.06;4386776;32;20175;-93
2022/11/17 07:58:55;;;;;;;21.58;11.48;;;;;;;11.27;59.80;98308.09;4385518;32;20109;-93
2022/11/17 08:01:20;;;;;;;21.62;10.93;;;;;;;11.33;59.80;98320.75;4385166;32;20161;-93
2022/11/17 08:03:46;;;;;;;23.48;12.18;;;;;;;11.39;59.81;98314.38;4404405;32;20151;-93
2022/11/17 08:06:11;;;;;;;23.27;11.70;;;;;;;11.49;59.81;98310.28;4397954;32;20153;-93
2022/11/17 08:08:37;;;;;;;20.75;9.95;;;;;;;11.64;59.82;98312.00;4385411;32;20155;-93
2022/11/17 08:11:09;;;;;;;22.10;10.98;;;;;;;11.62;59.82;98316.47;4385033;32;20090;-94
2022/11/17 08:13:35;;;;;;;24.73;11.57;;;;;;;11.59;59.81;98315.78;4385448;32;20133;-94
2022/11/17 08:16:00;;;;;;;29.10;13.10;;;;;;;11.61;59.82;98314.81;4384938;32;20093;-92
2022/11/17 08:18:26;;;;;;;22.95;10.68;;;;;;;11.74;59.82;98314.91;4385143;32;20116;-93
2022/11/17 08:20:51;;;;;;;26.12;13.10;;;;;;;11.80;59.82;98324.97;4385061;32;20152;-92
2022/11/17 08:23:17;;;;;;;22.13;12.02;;;;;;;11.65;59.82;98323.28;4384703;32;20156;-92
2022/11/17 08:25:42;;;;;;;24.48;11.82;;;;;;;11.59;59.81;98337.50;4384930;32;20109;-93
2022/11/17 08:28:08;;;;;;;21.98;10.98;;;;;;;11.79;59.83;98327.69;4385024;32;20093;-93
2022/11/17 08:30:34;;;;;;;22.37;11.27;;;;;;;11.87;59.83;98328.09;4384770;32;20173;-93
2022/11/17 08:33:00;;;;;;;20.33;11.10;;;;;;;11.94;59.83;98329.38;4397704;32;20151;-93
2022/11/17 08:35:25;;;;;;;22.15;11.25;;;;;;;12.14;59.85;98328.19;4384787;32;20121;-92
2022/11/17 08:37:51;;;;;;;20.55;10.30;;;;;;;12.39;59.86;98333.56;4397227;32;20085;-93
2022/11/17 08:40:17;;;;;;;20.98;9.70;;;;;;;12.37;59.86;98326.78;4384865;32;20414;-91
2022/11/17 08:42:42;;;;;;;20.85;10.73;;;;;;;12.37;59.86;98332.84;4384932;32;20142;-93
2022/11/17 08:45:09;;;;;;;18.40;9.95;;;;;;;12.45;59.86;98337.56;4384428;32;21298;-93
2022/11/17 08:47:34;;;;;;;17.17;9.77;;;;;;;12.27;59.85;98344.75;4384999;32;20110;-92
2022/11/17 08:50:00;;;;;;;17.37;10.13;;;;;;;12.42;59.86;98354.25;4384611;32;20143;-94
2022/11/17 08:52:28;;;;;;;19.05;10.70;;;;;;;12.31;59.86;98350.66;4396857;32;24636;-92
2022/11/17 08:54:54;;;;;;;18.40;9.95;;;;;;;12.28;59.86;98352.47;4384841;32;20117;-94
2022/11/17 08:57:20;;;;;;;19.73;10.30;;;;;;;12.52;59.87;98349.28;4397393;32;20152;-93
2022/11/17 08:59:46;;;;;;;17.42;10.55;;;;;;;12.57;59.88;98348.09;4384898;32;20105;-93
2022/11/17 09:02:12;;;;;;;19.52;11.50;;;;;;;12.51;59.87;98351.06;4384771;32;20145;-93
2022/11/17 09:04:37;;;;;;;24.23;12.35;;;;;;;12.34;59.85;98350.44;4400197;32;20117;-93
2022/11/17 09:07:02;;;;;;;19.30;10.98;;;;;;;12.45;59.86;98348.84;4396536;32;20170;-92
2022/11/17 09:09:31;;;;;;;17.65;10.18;;;;;;;12.25;59.85;98357.88;4384337;32;20106;-93
2022/11/17 09:11:57;;;;;;;16.50;10.00;;;;;;;12.12;59.84;98354.37;4397068;32;20114;-92
2022/11/17 09:14:23;;;;;;;16.77;9.15;;;;;;;12.14;59.85;98359.50;4384924;32;20105;-92
2022/11/17 09:16:48;;;;;;;18.75;10.13;;;;;;;12.23;59.85;98361.53;4396350;32;25199;-92
2022/11/17 09:19:14;;;;;;;21.90;10.70;;;;;;;12.19;59.84;98367.88;4384657;32;20541;-92
2022/11/17 09:21:40;;;;;;;19.33;10.15;;;;;;;12.12;59.85;98374.41;4398259;32;20118;-92
2022/11/17 09:24:05;;;;;;;17.40;9.93;;;;;;;12.17;59.85;98369.72;4385066;32;20105;-93
2022/11/17 09:26:31;;;;;;;18.27;10.43;;;;;;;12.22;59.85;98375.50;4399175;32;20101;-92
2022/11/17 09:29:00;;;;;;;20.62;10.43;;;;;;;12.30;59.86;98373.25;4384820;32;20479;-93
2022/11/17 09:31:26;;;;;;;19.42;11.40;;;;;;;12.41;59.86;98370.00;4397126;32;20110;-92
2022/11/17 09:33:51;;;;;;;20.83;11.35;;;;;;;12.50;59.86;98372.03;4397202;32;20105;-92
2022/11/17 09:36:17;;;;;;;20.67;9.43;;;;;;;12.49;59.86;98362.53;4384277;32;23619;-93
2022/11/17 09:38:44;;;;;;;16.92;9.85;;;;;;;12.36;59.86;98369.47;4384369;32;20086;-93
2022/11/17 09:41:18;;;;;;;18.15;10.07;;;;;;;12.23;59.85;98366.75;4384821;32;20097;-93
2022/11/17 09:43:48;;;;;;;19.17;10.25;;;;;;;12.45;59.86;98366.28;4395700;32;20117;-92
2022/11/17 09:46:42;;;;;;;15.57;8.77;;;;;;;12.42;59.86;98362.09;4374615;32;20094;-92
2022/11/17 09:49:26;;;;;;;18.58;9.57;;;;;;;12.51;59.87;98352.84;4394396;32;20120;-93
2022/11/17 09:51:51;;;;;;;15.75;9.10;;;;;;;12.55;59.87;98347.34;4394646;32;20440;-93
2022/11/17 09:54:35;;;;;;;14.57;8.02;;;;;;;12.54;59.87;98348.28;4384501;32;20482;-93
2022/11/17 09:57:00;;;;;;;14.70;8.07;;;;;;;12.59;59.87;98345.38;4385807;32;20104;-92
2022/11/17 09:59:26;;;;;;;12.85;7.12;;;;;;;12.63;59.87;98343.41;4384346;32;20094;-93
2022/11/17 10:01:51;;;;;;;13.95;7.55;;;;;;;12.87;59.88;98328.81;4383513;32;32565;-93
2022/11/17 10:04:17;;;;;;;14.05;7.87;;;;;;;12.94;59.89;98331.87;4402725;32;20155;-94
2022/11/17 10:06:44;;;;;;;10.70;6.68;;;;;;;13.13;59.90;98329.75;4384060;32;20457;-93
2022/11/17 10:09:43;;;;;;;13.05;7.32;;;;;;;13.22;59.90;98331.78;4384401;32;20489;-93
2022/11/17 10:12:12;;;;;;;16.00;8.57;;;;;;;13.18;59.90;98335.53;4388706;32;20114;-92
2022/11/17 10:14:38;;;;;;;14.15;7.37;;;;;;;13.13;59.90;98338.41;4409289;32;20178;-93
2022/11/17 10:17:04;;;;;;;13.77;7.50;;;;;;;12.99;59.90;98332.41;4384105;32;20405;-92
2022/11/17 10:19:30;;;;;;;12.48;7.65;;;;;;;13.09;59.89;98326.50;4383684;32;20163;-93
2022/11/17 10:22:02;;;;;;;14.00;7.80;;;;;;;13.25;59.91;98334.22;4396703;32;20109;-93
2022/11/17 10:24:46;;;;;;;16.52;8.20;;;;;;;13.07;59.90;98325.75;4408783;32;20122;-93
2022/11/17 10:27:23;;;;;;;13.25;7.35;;;;;;;13.12;59.90;98336.75;4387248;32;20119;-92
2022/11/17 10:30:25;;;;;;;13.50;7.80;;;;;;;13.00;59.89;98336.69;4384001;32;20123;-92
2022/11/17 10:32:57;;;;;;;12.63;7.65;;;;;;;13.13;59.90;98335.81;4421137;32;20097;-93
2022/11/17 10:35:29;;;;;;;16.33;8.45;;;;;;;13.16;59.90;98333.00;4384231;32;20128;-93
2022/11/17 10:38:00;;;;;;;13.43;7.95;;;;;;;13.09;59.89;98326.50;4384122;32;20224;-93
2022/11/17 10:40:26;;;;;;;13.68;7.90;;;;;;;13.13;59.90;98327.13;4395047;32;20128;-93
2022/11/17 10:42:59;;;;;;;11.75;7.53;;;;;;;13.15;59.90;98320.88;4386071;32;20447;-93
2022/11/17 10:45:25;;;;;;;9.85;6.25;;;;;;;13.19;59.91;98335.44;4382597;32;20132;-93
2022/11/17 10:47:50;;;;;;;11.30;6.57;;;;;;;13.33;59.91;98337.16;4384445;32;20117;-92
2022/11/17 10:50:26;;;;;;;10.30;5.80;;;;;;;13.29;59.91;98340.09;4397602;32;27266;-93
2022/11/17 10:52:53;;;;;;;11.85;7.10;;;;;;;13.38;59.91;98342.06;4396064;32;20117;-92
2022/11/17 10:55:30;;;;;;;10.82;5.93;;;;;;;13.53;59.92;98348.91;4383907;32;20677;-93
2022/11/17 10:58:00;;;;;;;12.77;7.07;;;;;;;13.73;59.93;98337.13;4385559;32;20173;-92
2022/11/17 11:00:26;;;;;;;11.70;6.47;;;;;;;13.32;59.91;98338.09;4410895;32;20124;-92
2022/11/17 11:03:25;;;;;;;12.50;6.37;;;;;;;13.43;59.92;98337.38;4397934;32;20405;-92
2022/11/17 11:06:02;;;;;;;11.30;6.60;;;;;;;13.52;59.92;98337.63;4390339;32;20174;-93
2022/11/17 11:08:44;;;;;;;10.90;5.97;;;;;;;13.43;59.92;98329.53;4376944;32;20098;-93
2022/11/17 11:11:45;;;;;;;12.37;6.25;;;;;;;13.67;59.93;98325.28;4398422;32;20117;-92
2022/11/17 11:14:23;;;;;;;10.27;5.95;;;;;;;13.73;59.93;98318.84;4410819;32;20817;-93
2022/11/17 11:16:49;;;;;;;12.15;5.85;;;;;;;13.88;59.94;98319.53;4385811;32;20112;-93
2022/11/17 11:19:16;;;;;;;11.85;6.28;;;;;;;13.80;59.94;98313.06;4398329;32;20120;-92
2022/11/17 11:21:56;;;;;;;9.25;5.85;;;;;;;13.80;59.94;98315.69;4410421;32;20097;-92
2022/11/17 11:24:24;;;;;;;10.25;5.45;;;;;;;13.88;59.94;98317.78;4398662;32;20171;-92
2022/11/17 11:27:20;;;;;;;9.23;5.75;;;;;;;13.91;59.94;98325.41;4398093;32;20463;-93
2022/11/17 11:29:56;;;;;;;10.70;5.62;;;;;;;13.77;59.94;98321.12;4361502;32;20110;-92
2022/11/17 11:32:40;;;;;;;10.50;5.68;;;;;;;13.61;59.92;98335.31;4397586;32;20097;-93
2022/11/17 11:35:25;;;;;;;10.10;5.47;;;;;;;13.79;59.93;98336.72;4399689;32;20824;-92
2022/11/17 11:37:56;;;;;;;16.33;8.90;;;;;;;13.77;59.93;98322.91;4410263;32;20446;-92
2022/11/17 11:40:34;;;;;;;39.47;16.58;;;;;;;13.93;59.94;98315.66;4407447;32;20094;-92
2022/11/17 11:43:21;;;;;;;14.52;7.40;;;;;;;13.99;59.95;98330.13;4376012;32;20521;-93
2022/11/17 11:46:24;;;;;;;11.05;6.60;;;;;;;13.90;59.94;98330.75;4399355;32;20117;-91
2022/11/17 11:48:50;;;;;;;9.85;5.65;;;;;;;13.88;59.94;98324.78;4424269;32;20806;-92
2022/11/17 11:51:32;;;;;;;10.05;7.12;;;;;;;13.81;59.94;98319.97;4385211;32;20165;-92
2022/11/17 11:54:33;;;;;;;11.90;6.30;;;;;;;13.99;59.94;98315.28;4411491;32;20112;-93
2022/11/17 11:56:58;;;;;;;12.10;6.45;;;;;;;13.96;59.95;98310.25;4410393;32;20114;-92
2022/11/17 11:59:55;;;;;;;9.27;5.82;;;;;;;13.98;59.94;98318.00;4385085;32;20085;-92
2022/11/17 12:02:57;;;;;;;9.93;5.62;;;;;;;14.09;59.95;98318.09;4399737;32;20073;-91
2022/11/17 12:05:27;;;;;;;10.25;6.18;;;;;;;14.12;59.95;98316.09;4399936;32;20632;-93
2022/11/17 12:08:08;;;;;;;11.75;6.82;;;;;;;14.39;59.96;98312.47;4407265;32;20102;-92
2022/11/17 12:10:58;;;;;;;9.98;6.20;;;;;;;14.69;59.98;98314.75;4410805;32;20121;-93
2022/11/17 12:13:23;;;;;;;9.75;6.10;;;;;;;14.79;59.99;98318.38;4405807;32;20208;-93
2022/11/17 12:15:49;;;;;;;10.95;7.07;;;;;;;14.79;59.98;98312.31;4376259;32;20097;-93
2022/11/17 12:18:17;;;;;;;11.30;7.53;;;;;;;14.53;59.97;98311.56;4383117;32;20133;-93
2022/11/17 12:20:49;;;;;;;10.52;6.87;;;;;;;14.68;59.98;98300.84;4402563;32;20478;-92
2022/11/17 12:23:27;;;;;;;11.10;6.85;;;;;;;14.60;59.98;98316.25;4372133;32;20102;-92
2022/11/17 12:25:53;;;;;;;8.93;6.37;;;;;;;14.56;59.98;98319.19;4409836;32;20093;-92
2022/11/17 12:28:27;;;;;;;10.40;6.60;;;;;;;14.65;59.98;98321.12;4384995;32;20735;-92
2022/11/17 12:30:54;;;;;;;9.45;6.32;;;;;;;14.59;59.98;98322.41;4385061;32;20109;-93
2022/11/17 12:33:20;;;;;;;12.02;7.35;;;;;;;14.72;59.99;98325.03;4384574;32;20523;-93
2022/11/17 12:35:52;;;;;;;9.82;6.28;;;;;;;14.56;59.98;98324.44;4384567;32;20139;-93
2022/11/17 12:38:18;;;;;;;10.40;6.60;;;;;;;14.56;59.98;98327.03;4397732;32;20172;-92
2022/11/17 12:40:48;;;;;;;9.25;6.15;;;;;;;14.53;59.97;98322.88;4409694;32;20141;-93
2022/11/17 12:43:13;;;;;;;9.00;6.20;;;;;;;14.84;59.99;98331.16;4397308;32;20170;-92
2022/11/17 12:45:56;;;;;;;11.73;6.63;;;;;;;14.90;60.00;98321.06;4423669;32;20489;-93
2022/11/17 12:48:23;;;;;;;8.20;6.28;;;;;;;15.00;60.00;98316.00;4424136;32;20178;-91
2022/11/17 12:51:00;;;;;;;10.18;5.90;;;;;;;14.97;60.00;98324.91;4384333;32;20053;-92
2022/11/17 12:53:48;;;;;;;8.50;6.18;;;;;;;14.96;60.00;98317.16;4397511;32;20102;-93
2022/11/17 12:56:31;;;;;;;9.13;6.10;;;;;;;14.73;59.99;98326.69;4388741;32;20496;-93